createdAt,value
2019-03-23T00:00:57.178Z,31.77
2019-03-23T00:03:28.206Z,32.00
2019-03-23T00:05:59.309Z,32.77
2019-03-23T00:08:30.502Z,32.57
2019-03-23T00:11:01.700Z,31.33
2019-03-23T00:13:32.806Z,30.03
2019-03-23T00:16:04.119Z,30.87
2019-03-23T00:18:35.156Z,32.40
2019-03-23T00:21:06.500Z,32.50
2019-03-23T00:23:37.591Z,32.07
2019-03-23T00:26:08.599Z,31.87
2019-03-23T00:28:39.782Z,31.63
2019-03-23T00:31:10.878Z,31.30
2019-03-23T00:33:41.942Z,31.47
2019-03-23T00:36:13.266Z,30.97
2019-03-23T00:38:45.259Z,31.67
2019-03-23T00:41:16.555Z,30.07
2019-03-23T00:43:47.539Z,31.97
2019-03-23T00:46:18.529Z,30.43
2019-03-23T00:48:49.567Z,31.57
2019-03-23T00:51:20.728Z,28.97
2019-03-23T00:53:51.933Z,31.97
2019-03-23T00:56:23.169Z,30.80
2019-03-23T00:58:54.319Z,31.17
2019-03-23T01:01:25.557Z,32.07
2019-03-23T01:03:57.809Z,30.90
2019-03-23T01:06:29.106Z,31.17
2019-03-23T01:09:00.278Z,30.57
2019-03-23T01:11:31.386Z,30.77
2019-03-23T01:14:02.495Z,32.10
2019-03-23T01:16:34.019Z,32.17
2019-03-23T01:19:05.396Z,32.50
2019-03-23T01:21:36.593Z,31.90
2019-03-23T01:24:07.851Z,31.50
2019-03-23T01:26:38.943Z,33.43
2019-03-23T01:29:10.193Z,30.00
2019-03-23T01:31:41.265Z,31.23
2019-03-23T01:34:12.350Z,29.57
2019-03-23T01:36:43.490Z,29.40
2019-03-23T01:39:14.508Z,29.00
2019-03-23T01:41:45.558Z,29.60
2019-03-23T01:44:16.680Z,28.13
2019-03-23T01:46:47.786Z,28.50
2019-03-23T01:49:18.774Z,27.10
2019-03-23T01:51:49.828Z,28.60
2019-03-23T01:54:21.094Z,29.33
2019-03-23T01:56:52.174Z,29.60
2019-03-23T01:59:23.538Z,30.07
2019-03-23T02:01:54.758Z,28.90
2019-03-23T02:04:26.105Z,28.33
2019-03-23T02:06:57.473Z,28.67
2019-03-23T02:09:28.538Z,28.20
2019-03-23T02:12:00.009Z,30.63
2019-03-23T02:14:31.161Z,31.63
2019-03-23T02:17:02.333Z,31.50
2019-03-23T02:19:33.833Z,31.47
2019-03-23T02:22:05.015Z,30.00
2019-03-23T02:24:36.251Z,33.37
2019-03-23T02:27:07.317Z,33.77
2019-03-23T02:29:38.383Z,32.83
2019-03-23T02:32:09.520Z,34.50
2019-03-23T02:34:40.575Z,35.67
2019-03-23T02:37:11.614Z,34.53
2019-03-23T02:39:42.680Z,34.00
2019-03-23T02:42:13.660Z,36.70
2019-03-23T02:44:44.803Z,34.47
2019-03-23T02:47:15.962Z,34.00
2019-03-23T02:49:47.012Z,35.50
2019-03-23T02:52:18.035Z,37.40
2019-03-23T02:54:49.042Z,35.77
2019-03-23T02:57:20.329Z,32.97
2019-03-23T02:59:51.548Z,34.00
2019-03-23T03:02:22.797Z,35.60
2019-03-23T03:04:53.901Z,35.03
2019-03-23T03:07:25.946Z,34.97
2019-03-23T03:09:56.931Z,34.90
2019-03-23T03:12:27.913Z,35.53
2019-03-23T03:14:58.909Z,37.40
2019-03-23T03:17:30.214Z,35.17
2019-03-23T03:20:01.277Z,36.17
2019-03-23T03:22:32.412Z,35.83
2019-03-23T03:25:03.756Z,34.53
2019-03-23T03:27:35.211Z,35.63
2019-03-23T03:30:11.743Z,35.60
2019-03-23T03:32:42.966Z,37.57
2019-03-23T03:35:13.976Z,36.53
2019-03-23T03:37:55.974Z,36.77
2019-03-23T03:40:17.890Z,34.90
2019-03-23T03:42:48.856Z,34.80
2019-03-23T03:45:25.364Z,34.60
2019-03-23T03:47:56.473Z,32.33
2019-03-23T03:50:27.702Z,33.20
2019-03-23T03:52:58.838Z,35.27
2019-03-23T03:55:30.139Z,34.87
2019-03-23T03:58:01.354Z,34.20
2019-03-23T04:00:32.562Z,34.37
2019-03-23T04:03:03.750Z,32.90
2019-03-23T04:05:34.808Z,33.87
2019-03-23T04:08:11.793Z,34.23
2019-03-23T04:10:38.812Z,33.80
2019-03-23T04:13:10.019Z,34.37
2019-03-23T04:15:41.417Z,35.17
2019-03-23T04:18:12.578Z,32.23
2019-03-23T04:20:43.824Z,32.57
2019-03-23T04:23:14.817Z,38.17
2019-03-23T04:25:45.955Z,40.27
2019-03-23T04:28:17.019Z,38.53
2019-03-23T04:30:48.138Z,37.03
2019-03-23T04:33:19.303Z,38.77
2019-03-23T04:35:50.384Z,35.87
2019-03-23T04:38:23.308Z,37.10
2019-03-23T04:40:54.659Z,39.40
2019-03-23T04:43:25.908Z,37.50
2019-03-23T04:45:57.280Z,40.17
2019-03-23T04:48:28.358Z,41.37
2019-03-23T04:50:59.442Z,43.03
2019-03-23T04:53:30.474Z,42.17
2019-03-23T04:56:01.464Z,40.77
2019-03-23T04:58:33.203Z,42.53
2019-03-23T05:01:04.525Z,42.40
2019-03-23T05:03:35.840Z,41.80
2019-03-23T05:06:06.937Z,40.30
2019-03-23T05:08:37.990Z,38.17
2019-03-23T05:11:09.275Z,40.57
2019-03-23T05:13:40.454Z,39.77
2019-03-23T05:16:12.393Z,36.83
2019-03-23T05:18:43.569Z,36.73
2019-03-23T05:21:14.758Z,37.10
2019-03-23T05:23:45.952Z,36.27
2019-03-23T05:26:17.169Z,35.07
2019-03-23T05:28:48.489Z,35.30
2019-03-23T05:31:19.668Z,34.10
2019-03-23T05:33:50.861Z,34.90
2019-03-23T05:36:21.993Z,34.20
2019-03-23T05:38:54.135Z,33.97
2019-03-23T05:41:25.443Z,33.00
2019-03-23T05:43:56.729Z,32.07
2019-03-23T05:46:28.171Z,31.30
2019-03-23T05:48:59.649Z,29.07
2019-03-23T05:51:30.715Z,28.83
2019-03-23T05:54:01.830Z,26.27
2019-03-23T05:56:33.130Z,22.77
2019-03-23T05:59:04.280Z,23.53
2019-03-23T06:01:35.398Z,23.33
2019-03-23T06:04:06.640Z,23.33
2019-03-23T06:06:37.852Z,22.37
2019-03-23T06:09:09.096Z,21.90
2019-03-23T06:11:40.114Z,21.17
2019-03-23T06:14:11.378Z,20.53
2019-03-23T06:16:43.074Z,19.27
2019-03-23T06:19:14.335Z,20.53
2019-03-23T06:21:45.277Z,18.40
2019-03-23T06:24:16.355Z,18.90
2019-03-23T06:26:47.348Z,18.53
2019-03-23T06:29:18.402Z,18.77
2019-03-23T06:31:49.508Z,18.50
2019-03-23T06:34:20.940Z,17.67
2019-03-23T06:36:52.366Z,18.40
2019-03-23T06:39:23.702Z,18.80
2019-03-23T06:41:54.878Z,19.13
2019-03-23T06:44:26.234Z,21.03
2019-03-23T06:46:57.494Z,20.33
2019-03-23T06:49:28.631Z,21.57
2019-03-23T06:51:59.877Z,22.13
2019-03-23T06:54:31.391Z,21.47
2019-03-23T06:57:02.679Z,22.03
2019-03-23T06:59:33.983Z,21.70
2019-03-23T07:02:05.216Z,22.43
2019-03-23T07:04:36.388Z,22.27
2019-03-23T07:07:07.813Z,20.60
2019-03-23T07:09:38.877Z,19.50
2019-03-23T07:12:09.912Z,19.57
2019-03-23T07:14:41.258Z,19.03
2019-03-23T07:17:12.404Z,18.37
2019-03-23T07:19:43.636Z,17.13
2019-03-23T07:22:14.834Z,16.80
2019-03-23T07:24:46.082Z,17.07
2019-03-23T07:27:18.459Z,16.37
2019-03-23T07:29:49.998Z,17.23
2019-03-23T07:32:21.244Z,16.00
2019-03-23T07:34:52.334Z,16.10
2019-03-23T07:37:23.654Z,15.30
2019-03-23T07:39:55.166Z,15.00
2019-03-23T07:42:26.355Z,15.53
2019-03-23T07:44:57.454Z,14.83
2019-03-23T07:47:28.632Z,13.67
2019-03-23T07:49:59.916Z,14.30
2019-03-23T07:52:30.936Z,13.83
2019-03-23T07:55:10.553Z,13.50
2019-03-23T07:57:41.719Z,13.60
2019-03-23T08:00:17.838Z,14.77
2019-03-23T08:02:49.015Z,12.93
2019-03-23T08:05:21.956Z,13.00
2019-03-23T08:07:53.264Z,12.03
2019-03-23T08:10:29.323Z,13.37
2019-03-23T08:13:00.439Z,13.87
2019-03-23T08:15:31.663Z,13.40
2019-03-23T08:18:02.701Z,13.53
2019-03-23T08:20:33.741Z,10.87
2019-03-23T08:23:05.007Z,12.10
2019-03-23T08:25:36.209Z,11.83
2019-03-23T08:28:07.379Z,12.70
2019-03-23T08:30:38.501Z,11.70
2019-03-23T08:33:09.551Z,10.37
2019-03-23T08:35:40.676Z,10.70
2019-03-23T08:38:11.689Z,10.30
2019-03-23T08:40:42.797Z,8.77
2019-03-23T08:43:13.886Z,8.37
2019-03-23T08:45:45.232Z,8.43
2019-03-23T08:48:16.137Z,8.53
2019-03-23T08:50:47.327Z,8.67
2019-03-23T08:53:18.463Z,9.23
2019-03-23T08:55:49.733Z,8.03
2019-03-23T08:58:29.224Z,7.23
2019-03-23T09:01:01.856Z,6.67
2019-03-23T09:03:33.186Z,6.13
2019-03-23T09:06:04.202Z,6.60
2019-03-23T09:08:35.374Z,6.10
2019-03-23T09:11:06.816Z,6.00
2019-03-23T09:13:40.879Z,6.43
2019-03-23T09:16:10.712Z,5.30
2019-03-23T09:18:41.722Z,6.13
2019-03-23T09:21:13.010Z,6.30
2019-03-23T09:23:44.201Z,5.90
2019-03-23T09:26:15.239Z,5.30
2019-03-23T09:28:46.486Z,5.10
2019-03-23T09:31:18.216Z,5.33
2019-03-23T09:33:49.458Z,4.30
2019-03-23T09:36:22.806Z,4.50
2019-03-23T09:38:55.095Z,4.60
2019-03-23T09:41:26.285Z,4.37
2019-03-23T09:43:57.285Z,5.40
2019-03-23T09:46:29.351Z,5.03
2019-03-23T09:49:00.679Z,4.90
2019-03-23T09:51:31.695Z,5.40
2019-03-23T09:54:02.935Z,5.80
2019-03-23T09:56:34.139Z,4.83
2019-03-23T09:59:05.119Z,5.23
2019-03-23T10:01:36.263Z,4.50
2019-03-23T10:04:08.500Z,4.77
2019-03-23T10:06:40.005Z,4.80
2019-03-23T10:09:11.323Z,6.30
2019-03-23T10:11:42.582Z,5.63
2019-03-23T10:14:13.567Z,5.77
2019-03-23T10:16:44.734Z,5.40
2019-03-23T10:19:15.800Z,5.13
2019-03-23T10:21:46.953Z,5.13
2019-03-23T10:24:18.233Z,5.43
2019-03-23T10:26:49.441Z,5.77
2019-03-23T10:29:20.621Z,5.10
2019-03-23T10:31:51.764Z,5.23
2019-03-23T10:34:22.856Z,7.97
2019-03-23T10:36:53.894Z,6.80
2019-03-23T10:39:25.066Z,5.20
2019-03-23T10:41:56.230Z,4.90
2019-03-23T10:44:27.444Z,5.07
2019-03-23T10:46:58.585Z,5.30
2019-03-23T10:49:29.894Z,5.57
2019-03-23T10:52:01.219Z,5.27
2019-03-23T10:54:35.502Z,5.70
2019-03-23T10:57:06.769Z,6.00
2019-03-23T10:59:37.928Z,6.03
2019-03-23T11:02:09.116Z,6.23
2019-03-23T11:04:40.292Z,6.73
2019-03-23T11:07:11.484Z,5.93
2019-03-23T11:09:42.758Z,5.93
2019-03-23T11:12:13.869Z,5.97
2019-03-23T11:14:44.926Z,6.47
2019-03-23T11:17:16.373Z,6.27
2019-03-23T11:19:47.409Z,6.17
2019-03-23T11:22:18.651Z,6.00
2019-03-23T11:24:49.782Z,6.77
2019-03-23T11:27:20.874Z,7.00
2019-03-23T11:29:53.171Z,6.00
2019-03-23T11:32:24.199Z,6.20
2019-03-23T11:34:55.396Z,8.20
2019-03-23T11:37:26.657Z,8.20
2019-03-23T11:39:57.687Z,6.97
2019-03-23T11:42:28.831Z,6.93
2019-03-23T11:45:01.289Z,7.50
2019-03-23T11:47:32.453Z,6.50
2019-03-23T11:50:03.777Z,6.67
2019-03-23T11:52:35.123Z,8.13
2019-03-23T11:55:06.784Z,8.47
2019-03-23T11:57:37.953Z,7.77
2019-03-23T12:00:09.951Z,7.43
2019-03-23T12:02:41.218Z,7.63
2019-03-23T12:05:13.303Z,7.73
2019-03-23T12:07:44.422Z,8.50
2019-03-23T12:10:15.570Z,8.40
2019-03-23T12:12:46.888Z,8.63
2019-03-23T12:15:17.922Z,8.60
2019-03-23T12:17:49.315Z,9.10
2019-03-23T12:23:44.382Z,9.73
2019-03-23T12:26:33.106Z,10.53
2019-03-23T12:29:04.422Z,9.17
2019-03-23T12:31:35.680Z,9.47
2019-03-23T12:34:06.695Z,9.40
2019-03-23T12:36:37.822Z,8.57
2019-03-23T12:39:09.151Z,8.27
2019-03-23T12:41:40.287Z,8.13
2019-03-23T12:44:11.492Z,8.70
2019-03-23T12:46:48.197Z,8.43
2019-03-23T12:49:15.103Z,8.80
2019-03-23T12:51:46.229Z,9.48
2019-03-23T12:54:17.343Z,9.00
2019-03-23T12:56:48.409Z,8.00
2019-03-23T12:59:19.429Z,7.47
2019-03-23T13:01:50.531Z,7.90
2019-03-23T13:04:21.547Z,8.48
2019-03-23T13:06:54.051Z,8.20
2019-03-23T13:09:25.093Z,8.80
2019-03-23T13:11:56.100Z,7.83
2019-03-23T13:14:27.377Z,8.13
2019-03-23T13:16:58.416Z,7.80
2019-03-23T13:19:29.657Z,7.60
2019-03-23T13:22:00.829Z,7.90
2019-03-23T13:24:32.041Z,7.65
2019-03-23T13:27:04.189Z,7.65
2019-03-23T13:29:35.688Z,7.67
2019-03-23T13:32:06.914Z,7.75
2019-03-23T13:34:37.950Z,7.47
2019-03-23T13:37:09.120Z,8.23
2019-03-23T13:39:40.171Z,8.98
2019-03-23T13:42:11.270Z,8.23
2019-03-23T13:44:42.276Z,8.13
2019-03-23T13:47:13.398Z,7.67
2019-03-23T13:49:44.667Z,7.92
2019-03-23T13:52:15.897Z,8.20
2019-03-23T13:54:47.006Z,7.40
2019-03-23T13:57:18.004Z,8.15
2019-03-23T13:59:49.060Z,8.10
2019-03-23T14:02:20.132Z,8.30
2019-03-23T14:04:51.304Z,8.58
2019-03-23T14:07:22.683Z,8.60
2019-03-23T14:09:54.151Z,8.65
2019-03-23T14:12:25.909Z,8.88
2019-03-23T14:14:57.322Z,8.60
2019-03-23T14:17:28.439Z,8.00
2019-03-23T14:19:59.538Z,8.37
2019-03-23T14:22:30.885Z,8.37
2019-03-23T14:25:02.093Z,9.20
2019-03-23T14:27:33.230Z,8.63
2019-03-23T14:30:04.597Z,8.20
2019-03-23T14:32:35.607Z,8.40
2019-03-23T14:35:07.193Z,8.13
2019-03-23T14:37:39.855Z,7.87
2019-03-23T14:40:11.157Z,8.83
2019-03-23T14:42:42.484Z,8.53
2019-03-23T14:45:13.831Z,9.80
2019-03-23T14:47:44.798Z,9.20
2019-03-23T14:50:16.045Z,8.03
2019-03-23T14:52:47.840Z,8.67
2019-03-23T14:55:20.347Z,7.90
2019-03-23T14:57:51.975Z,8.40
2019-03-23T15:00:32.012Z,8.50
2019-03-23T15:03:03.437Z,8.37
2019-03-23T15:05:35.708Z,9.07
2019-03-23T15:08:06.925Z,7.47
2019-03-23T15:10:37.939Z,7.30
2019-03-23T15:13:09.016Z,7.30
2019-03-23T15:15:40.230Z,6.93
2019-03-23T15:18:11.363Z,7.40
2019-03-23T15:20:42.732Z,7.77
2019-03-23T15:23:13.901Z,7.33
2019-03-23T15:25:45.108Z,7.07
2019-03-23T15:28:16.419Z,6.80
2019-03-23T15:30:47.497Z,6.73
2019-03-23T15:33:18.708Z,6.80
2019-03-23T15:35:49.871Z,7.20
2019-03-23T15:38:21.186Z,6.83
2019-03-23T15:40:52.322Z,7.07
2019-03-23T15:43:23.535Z,6.40
2019-03-23T15:45:54.904Z,6.47
2019-03-23T15:48:26.161Z,6.93
2019-03-23T15:50:57.167Z,7.00
2019-03-23T15:53:28.345Z,6.30
2019-03-23T15:55:59.477Z,6.40
2019-03-23T15:58:30.595Z,6.53
2019-03-23T16:01:01.923Z,6.90
2019-03-23T16:03:32.985Z,7.23
2019-03-23T16:06:04.204Z,6.90
2019-03-23T16:08:35.374Z,7.27
2019-03-23T16:11:06.473Z,6.97
2019-03-23T16:13:37.723Z,6.57
2019-03-23T16:16:09.203Z,8.13
2019-03-23T16:18:40.851Z,7.00
2019-03-23T16:21:12.095Z,6.17
2019-03-23T16:23:43.319Z,7.33
2019-03-23T16:26:14.389Z,6.83
2019-03-23T16:28:45.540Z,6.47
2019-03-23T16:31:16.709Z,6.73
2019-03-23T16:33:48.935Z,7.00
2019-03-23T16:36:20.207Z,6.17
2019-03-23T16:38:51.662Z,6.33
2019-03-23T16:41:22.939Z,6.67
2019-03-23T16:43:54.240Z,7.10
2019-03-23T16:46:25.774Z,7.20
2019-03-23T16:48:57.190Z,8.07
2019-03-23T16:51:28.805Z,8.07
2019-03-23T16:54:38.510Z,9.60
2019-03-23T16:57:11.034Z,8.40
2019-03-23T16:59:42.286Z,8.97
2019-03-23T17:02:13.765Z,9.20
2019-03-23T17:04:44.988Z,9.03
2019-03-23T17:07:16.216Z,8.80
2019-03-23T17:09:47.737Z,8.67
2019-03-23T17:12:19.368Z,8.53
2019-03-23T17:14:50.622Z,9.13
2019-03-23T17:17:21.996Z,10.13
2019-03-23T17:19:53.282Z,8.80
2019-03-23T17:22:24.798Z,9.80
2019-03-23T17:24:56.111Z,9.40
2019-03-23T17:27:27.576Z,10.00
2019-03-23T17:29:58.955Z,11.40
2019-03-23T17:32:30.516Z,10.83
2019-03-23T17:35:01.991Z,11.43
2019-03-23T17:37:33.402Z,11.57
2019-03-23T17:40:04.999Z,11.33
2019-03-23T17:42:36.537Z,12.33
2019-03-23T17:45:07.807Z,12.20
2019-03-23T17:47:40.267Z,12.17
2019-03-23T17:50:12.244Z,14.10
2019-03-23T17:52:43.820Z,14.27
2019-03-23T17:55:15.235Z,16.23
2019-03-23T17:57:46.651Z,17.77
2019-03-23T18:00:17.846Z,16.97
2019-03-23T18:02:49.173Z,18.57
2019-03-23T18:05:20.393Z,17.50
2019-03-23T18:07:52.971Z,16.33
2019-03-23T18:10:25.204Z,15.50
2019-03-23T18:12:56.598Z,16.33
2019-03-23T18:15:27.792Z,14.37
2019-03-23T18:17:58.998Z,14.43
2019-03-23T18:20:30.220Z,15.03
2019-03-23T18:23:01.394Z,15.60
2019-03-23T18:25:32.707Z,14.90
2019-03-23T18:28:03.698Z,16.60
2019-03-23T18:30:39.748Z,20.50
2019-03-23T18:33:11.114Z,20.60
2019-03-23T18:35:42.638Z,17.67
2019-03-23T18:38:13.685Z,18.30
2019-03-23T18:40:44.878Z,18.00
2019-03-23T18:43:26.700Z,17.57
2019-03-23T18:45:48.944Z,17.13
2019-03-23T18:48:20.089Z,17.00
2019-03-23T18:50:51.458Z,16.77
2019-03-23T18:53:24.057Z,18.77
2019-03-23T18:55:55.749Z,16.77
2019-03-23T18:58:27.043Z,18.13
2019-03-23T19:00:58.702Z,18.50
2019-03-23T19:03:30.041Z,18.17
2019-03-23T19:06:01.365Z,20.00
2019-03-23T19:08:33.778Z,19.03
2019-03-23T19:11:05.109Z,20.03
2019-03-23T19:13:38.090Z,19.67
2019-03-23T19:16:09.386Z,19.20
2019-03-23T19:18:40.748Z,20.00
2019-03-23T19:21:12.033Z,20.47
2019-03-23T19:23:43.318Z,20.90
2019-03-23T19:26:14.661Z,22.00
2019-03-23T19:28:47.987Z,21.03
2019-03-23T19:31:19.216Z,21.10
2019-03-23T19:33:50.754Z,22.30
2019-03-23T19:36:23.114Z,23.43
2019-03-23T19:38:54.487Z,22.13
2019-03-23T19:41:25.919Z,23.30
2019-03-23T19:43:57.181Z,24.53
2019-03-23T19:46:28.320Z,23.97
2019-03-23T19:48:59.673Z,23.63
2019-03-23T19:51:30.788Z,25.07
2019-03-23T19:54:02.111Z,24.03
2019-03-23T19:56:33.208Z,25.97
2019-03-23T19:59:04.440Z,26.23
2019-03-23T20:01:35.650Z,26.83
2019-03-23T20:04:06.620Z,26.63
2019-03-23T20:06:38.721Z,27.17
2019-03-23T20:09:10.412Z,27.50
2019-03-23T20:11:41.686Z,28.27
2019-03-23T20:14:12.727Z,28.20
2019-03-23T20:16:44.106Z,27.30
2019-03-23T20:19:15.182Z,28.33
2019-03-23T20:21:46.328Z,31.53
2019-03-23T20:24:17.484Z,30.33
2019-03-23T20:26:49.131Z,28.43
2019-03-23T20:29:20.807Z,29.27
2019-03-23T20:31:52.385Z,29.90
2019-03-23T20:34:23.929Z,30.47
2019-03-23T20:36:55.790Z,29.53
2019-03-23T20:39:27.205Z,29.17
2019-03-23T20:41:58.525Z,30.27
2019-03-23T20:44:29.827Z,30.27
2019-03-23T20:47:01.189Z,29.60
2019-03-23T20:49:32.590Z,30.60
2019-03-23T20:52:04.018Z,31.30
2019-03-23T20:54:35.649Z,32.00
2019-03-23T20:57:23.145Z,32.03
2019-03-23T20:59:45.330Z,31.37
2019-03-23T21:02:16.651Z,30.93
2019-03-23T21:04:47.936Z,31.97
2019-03-23T21:07:19.127Z,30.07
2019-03-23T21:09:51.155Z,30.73
2019-03-23T21:12:22.269Z,31.83
2019-03-23T21:14:53.598Z,32.00
2019-03-23T21:17:25.247Z,32.17
2019-03-23T21:20:00.160Z,34.50
2019-03-23T21:22:31.523Z,36.20
2019-03-23T21:25:02.935Z,36.27
2019-03-23T21:27:35.124Z,37.13
2019-03-23T21:30:08.503Z,36.97
2019-03-23T21:32:39.652Z,36.87
2019-03-23T21:35:11.107Z,37.37
2019-03-23T21:37:42.404Z,35.90
2019-03-23T21:40:13.894Z,36.17
2019-03-23T21:42:45.815Z,35.13
2019-03-23T21:45:17.756Z,36.57
2019-03-23T21:47:48.969Z,36.80
2019-03-23T21:50:20.369Z,36.63
2019-03-23T21:52:51.862Z,36.00
2019-03-23T21:55:23.339Z,36.13
2019-03-23T21:57:54.783Z,35.63
2019-03-23T22:00:32.079Z,37.73
2019-03-23T22:03:03.897Z,36.67
2019-03-23T22:05:35.486Z,38.37
2019-03-23T22:08:06.906Z,37.67
2019-03-23T22:10:38.083Z,38.97
2019-03-23T22:13:09.829Z,37.63
2019-03-23T22:15:41.286Z,38.70
2019-03-23T22:18:12.637Z,39.17
2019-03-23T22:20:43.879Z,40.20
2019-03-23T22:23:15.128Z,39.73
2019-03-23T22:25:46.165Z,40.30
2019-03-23T22:28:17.279Z,40.93
2019-03-23T22:30:48.422Z,41.87
2019-03-23T22:33:19.598Z,41.97
2019-03-23T22:35:50.930Z,39.27
2019-03-23T22:38:22.257Z,41.70
2019-03-23T22:40:53.415Z,41.63
2019-03-23T22:43:24.537Z,40.77
2019-03-23T22:45:55.778Z,41.17
2019-03-23T22:48:27.294Z,41.57
2019-03-23T22:50:58.397Z,41.20
2019-03-23T22:53:29.687Z,40.13
2019-03-23T22:56:00.932Z,39.07
2019-03-23T22:58:32.258Z,38.07
2019-03-23T23:01:03.547Z,37.37
2019-03-23T23:03:50.076Z,35.03
2019-03-23T23:06:21.126Z,30.47
2019-03-23T23:08:52.287Z,27.03
2019-03-23T23:11:23.809Z,25.27
2019-03-23T23:13:55.293Z,24.17
2019-03-23T23:16:26.479Z,24.00
2019-03-23T23:18:57.547Z,22.47
2019-03-23T23:21:28.623Z,23.00
2019-03-23T23:23:59.790Z,22.67
2019-03-23T23:26:30.916Z,22.03
2019-03-23T23:29:02.054Z,20.57
2019-03-23T23:31:33.357Z,19.70
2019-03-23T23:34:04.679Z,19.70
2019-03-23T23:36:35.949Z,19.70
2019-03-23T23:39:08.929Z,20.90
2019-03-23T23:41:40.443Z,21.53
2019-03-23T23:47:47.639Z,18.80
2019-03-23T23:50:18.668Z,18.63
2019-03-23T23:52:49.811Z,17.93
2019-03-23T23:55:20.814Z,18.53
2019-03-23T23:57:52.065Z,18.07
